createdAt,value
2022-11-14T00:00:18.867Z,25.00
2022-11-14T00:01:18.872Z,29.00
2022-11-14T00:02:18.898Z,24.60
2022-11-14T00:03:18.840Z,25.10
2022-11-14T00:04:18.809Z,29.00
2022-11-14T00:05:18.810Z,27.00
2022-11-14T00:06:18.802Z,24.80
2022-11-14T00:07:18.831Z,24.70
2022-11-14T00:08:18.763Z,22.40
2022-11-14T00:09:18.749Z,22.80
2022-11-14T00:10:18.728Z,26.20
2022-11-14T00:11:18.749Z,24.10
2022-11-14T00:12:18.699Z,28.60
2022-11-14T00:13:18.700Z,27.10
2022-11-14T00:14:18.676Z,25.30
2022-11-14T00:15:18.671Z,24.70
2022-11-14T00:16:18.659Z,27.80
2022-11-14T00:17:18.643Z,27.40
2022-11-14T00:18:18.627Z,30.60
2022-11-14T00:19:18.609Z,25.20
2022-11-14T00:20:18.595Z,28.30
2022-11-14T00:21:18.599Z,26.10
2022-11-14T00:22:18.569Z,23.10
2022-11-14T00:23:18.559Z,21.30
2022-11-14T00:24:18.541Z,25.80
2022-11-14T00:25:18.529Z,25.60
2022-11-14T00:26:18.537Z,25.80
2022-11-14T00:27:18.498Z,22.60
2022-11-14T00:28:18.500Z,21.80
2022-11-14T00:29:18.480Z,27.00
2022-11-14T00:30:18.480Z,22.00
2022-11-14T00:31:18.475Z,24.10
2022-11-14T00:32:18.429Z,23.90
2022-11-14T00:33:20.588Z,25.70
2022-11-14T00:34:18.401Z,25.40
2022-11-14T00:35:18.398Z,28.30
2022-11-14T00:36:18.401Z,22.30
2022-11-14T00:37:18.378Z,22.70
2022-11-14T00:38:18.353Z,21.40
2022-11-14T00:39:18.349Z,21.10
2022-11-14T00:40:18.319Z,23.60
2022-11-14T00:41:18.329Z,21.00
2022-11-14T00:42:18.303Z,24.90
2022-11-14T00:43:18.290Z,20.60
2022-11-14T00:44:18.283Z,21.80
2022-11-14T00:45:18.269Z,22.90
2022-11-14T00:46:18.269Z,23.60
2022-11-14T00:47:18.239Z,21.00
2022-11-14T00:48:18.210Z,17.60
2022-11-14T00:49:18.212Z,22.10
2022-11-14T00:50:18.198Z,21.30
2022-11-14T00:51:18.200Z,22.40
2022-11-14T00:52:18.169Z,23.00
2022-11-14T00:53:18.150Z,21.80
2022-11-14T00:54:18.141Z,21.90
2022-11-14T00:55:18.128Z,19.60
2022-11-14T00:56:18.129Z,24.40
2022-11-14T00:57:18.107Z,24.00
2022-11-14T00:58:18.087Z,23.40
2022-11-14T00:59:18.071Z,22.70
2022-11-14T01:00:18.060Z,23.70
2022-11-14T01:01:18.114Z,24.80
2022-11-14T01:02:18.039Z,21.30
2022-11-14T01:03:18.033Z,23.80
2022-11-14T01:04:18.006Z,22.50
2022-11-14T01:05:17.996Z,23.20
2022-11-14T01:06:17.991Z,21.80
2022-11-14T01:07:17.969Z,24.00
2022-11-14T01:08:17.956Z,28.70
2022-11-14T01:09:18.003Z,22.00
2022-11-14T01:10:17.947Z,27.70
2022-11-14T01:11:17.930Z,23.90
2022-11-14T01:12:17.922Z,22.90
2022-11-14T01:13:17.933Z,21.00
2022-11-14T01:14:17.872Z,26.80
2022-11-14T01:15:17.860Z,25.50
2022-11-14T01:16:17.858Z,25.40
2022-11-14T01:17:17.840Z,27.80
2022-11-14T01:18:17.832Z,28.40
2022-11-14T01:19:17.811Z,31.10
2022-11-14T01:20:17.791Z,23.60
2022-11-14T01:21:17.812Z,26.80
2022-11-14T01:22:17.764Z,24.70
2022-11-14T01:23:17.759Z,27.80
2022-11-14T01:24:17.742Z,26.70
2022-11-14T01:25:17.731Z,27.50
2022-11-14T01:26:17.710Z,29.30
2022-11-14T01:27:17.694Z,28.70
2022-11-14T01:28:17.683Z,27.00
2022-11-14T01:29:17.670Z,28.40
2022-11-14T01:30:17.658Z,27.30
2022-11-14T01:31:17.668Z,26.90
2022-11-14T01:32:17.620Z,29.60
2022-11-14T01:33:17.620Z,28.20
2022-11-14T01:34:17.601Z,25.10
2022-11-14T01:35:17.588Z,27.10
2022-11-14T01:36:17.600Z,26.90
2022-11-14T01:37:17.577Z,25.90
2022-11-14T01:38:17.549Z,26.20
2022-11-14T01:39:17.539Z,22.60
2022-11-14T01:40:17.524Z,30.30
2022-11-14T01:41:17.535Z,28.80
2022-11-14T01:42:17.802Z,29.30
2022-11-14T01:43:17.493Z,26.40
2022-11-14T01:44:17.460Z,29.10
2022-11-14T01:45:17.452Z,26.00
2022-11-14T01:46:17.455Z,23.90
2022-11-14T01:47:17.423Z,25.10
2022-11-14T01:48:17.412Z,23.70
2022-11-14T01:49:17.403Z,24.30
2022-11-14T01:50:17.381Z,24.50
2022-11-14T01:51:17.401Z,20.80
2022-11-14T01:52:17.351Z,24.50
2022-11-14T01:53:17.360Z,26.00
2022-11-14T01:54:17.340Z,25.30
2022-11-14T01:55:17.329Z,27.60
2022-11-14T01:56:17.322Z,24.80
2022-11-14T01:57:17.300Z,23.10
2022-11-14T01:58:17.276Z,22.80
2022-11-14T01:59:17.273Z,29.00
2022-11-14T02:00:17.255Z,28.10
2022-11-14T02:01:17.378Z,28.40
2022-11-14T02:02:17.223Z,24.60
2022-11-14T02:03:17.213Z,21.40
2022-11-14T02:04:17.203Z,23.00
2022-11-14T02:05:17.207Z,24.80
2022-11-14T02:06:17.190Z,25.20
2022-11-14T02:07:17.227Z,21.30
2022-11-14T02:08:17.154Z,26.80
2022-11-14T02:09:17.133Z,24.10
2022-11-14T02:10:17.125Z,27.30
2022-11-14T02:11:17.122Z,21.90
2022-11-14T02:12:17.093Z,24.20
2022-11-14T02:13:17.087Z,26.00
2022-11-14T02:14:17.064Z,25.10
2022-11-14T02:15:17.053Z,22.20
2022-11-14T02:16:17.148Z,22.70
2022-11-14T02:17:32.425Z,21.50
2022-11-14T02:18:18.011Z,21.80
2022-11-14T02:19:17.012Z,23.00
2022-11-14T02:20:16.982Z,24.30
2022-11-14T02:21:17.943Z,22.90
2022-11-14T02:22:16.952Z,24.20
2022-11-14T02:23:16.944Z,23.60
2022-11-14T02:24:16.923Z,22.20
2022-11-14T02:25:16.932Z,23.30
2022-11-14T02:26:16.925Z,22.40
2022-11-14T02:27:16.892Z,23.90
2022-11-14T02:28:16.884Z,25.10
2022-11-14T02:29:16.866Z,25.00
2022-11-14T02:30:16.846Z,23.80
2022-11-14T02:31:16.857Z,19.70
2022-11-14T02:32:16.829Z,23.30
2022-11-14T02:33:16.831Z,21.70
2022-11-14T02:34:16.851Z,23.60
2022-11-14T02:35:16.786Z,22.20
2022-11-14T02:36:16.786Z,22.30
2022-11-14T02:37:16.766Z,21.90
2022-11-14T02:38:16.745Z,25.60
2022-11-14T02:39:16.736Z,25.40
2022-11-14T02:40:16.716Z,20.30
2022-11-14T02:41:16.715Z,21.70
2022-11-14T02:42:16.689Z,20.20
2022-11-14T02:43:16.677Z,21.00
2022-11-14T02:44:16.667Z,21.00
2022-11-14T02:45:16.665Z,23.80
2022-11-14T02:46:16.656Z,19.20
2022-11-14T02:47:16.625Z,20.20
2022-11-14T02:48:26.350Z,19.60
2022-11-14T02:49:16.589Z,22.00
2022-11-14T02:50:16.607Z,23.20
2022-11-14T02:51:16.559Z,19.20
2022-11-14T02:52:16.550Z,19.80
2022-11-14T02:53:16.546Z,21.20
2022-11-14T02:54:16.521Z,19.10
2022-11-14T02:55:16.529Z,21.50
2022-11-14T02:56:16.503Z,19.50
2022-11-14T02:57:16.479Z,22.30
2022-11-14T02:58:16.469Z,22.60
2022-11-14T02:59:16.450Z,22.90
2022-11-14T03:00:16.459Z,21.40
2022-11-14T03:01:21.217Z,23.50
2022-11-14T03:02:17.418Z,20.40
2022-11-14T03:03:16.398Z,22.10
2022-11-14T03:04:16.390Z,22.50
2022-11-14T03:05:16.395Z,23.80
2022-11-14T03:06:16.368Z,19.30
2022-11-14T03:07:16.411Z,18.90
2022-11-14T03:08:16.333Z,20.30
2022-11-14T03:09:16.326Z,19.80
2022-11-14T03:10:16.333Z,21.80
2022-11-14T03:11:16.279Z,20.70
2022-11-14T03:12:16.282Z,18.70
2022-11-14T03:13:16.263Z,20.70
2022-11-14T03:14:16.250Z,21.00
2022-11-14T03:15:16.256Z,17.60
2022-11-14T03:16:16.222Z,18.80
2022-11-14T03:17:16.210Z,15.20
2022-11-14T03:18:16.197Z,18.80
2022-11-14T03:19:16.204Z,16.20
2022-11-14T03:20:16.194Z,19.40
2022-11-14T03:21:16.164Z,15.50
2022-11-14T03:22:16.142Z,18.00
2022-11-14T03:23:16.121Z,18.40
2022-11-14T03:24:16.121Z,18.40
2022-11-14T03:25:16.110Z,16.90
2022-11-14T03:26:16.089Z,18.40
2022-11-14T03:27:16.070Z,18.00
2022-11-14T03:28:16.071Z,20.70
2022-11-14T03:29:16.041Z,19.40
2022-11-14T03:30:16.059Z,18.10
2022-11-14T03:31:16.012Z,17.40
2022-11-14T03:32:16.012Z,17.10
2022-11-14T03:33:15.990Z,18.20
2022-11-14T03:34:15.982Z,19.80
2022-11-14T03:35:16.017Z,19.00
2022-11-14T03:36:15.951Z,16.90
2022-11-14T03:37:15.938Z,18.60
2022-11-14T03:38:15.930Z,17.60
2022-11-14T03:39:15.912Z,17.40
2022-11-14T03:40:15.914Z,18.70
2022-11-14T03:41:15.880Z,19.40
2022-11-14T03:42:15.886Z,15.90
2022-11-14T03:43:15.864Z,15.70
2022-11-14T03:44:15.842Z,16.80
2022-11-14T03:45:15.841Z,15.70
2022-11-14T03:46:15.817Z,16.60
2022-11-14T03:47:15.801Z,17.50
2022-11-14T03:48:15.804Z,16.20
2022-11-14T03:49:15.780Z,14.80
2022-11-14T03:50:15.772Z,14.40
2022-11-14T03:51:15.749Z,15.00
2022-11-14T03:52:15.739Z,15.00
2022-11-14T03:53:15.712Z,14.50
2022-11-14T03:54:15.702Z,35.70
2022-11-14T03:55:15.714Z,71.40
2022-11-14T03:56:15.695Z,102.60
2022-11-14T03:57:15.662Z,67.90
2022-11-14T03:58:15.662Z,53.70
2022-11-14T03:59:15.655Z,48.00
2022-11-14T04:00:15.629Z,39.00
2022-11-14T04:01:15.647Z,17.40
2022-11-14T04:02:15.593Z,15.60
2022-11-14T04:03:15.571Z,14.40
2022-11-14T04:04:15.592Z,12.90
2022-11-14T04:05:15.551Z,14.00
2022-11-14T04:06:15.541Z,13.70
2022-11-14T04:07:15.599Z,10.90
2022-11-14T04:08:15.513Z,12.50
2022-11-14T04:09:15.517Z,11.80
2022-11-14T04:10:15.482Z,12.20
2022-11-14T04:11:15.473Z,12.70
2022-11-14T04:12:16.009Z,10.30
2022-11-14T04:13:15.505Z,10.70
2022-11-14T04:14:15.443Z,11.40
2022-11-14T04:15:15.413Z,11.60
2022-11-14T04:16:15.412Z,12.90
2022-11-14T04:17:15.383Z,124.20
2022-11-14T04:18:15.372Z,63.70
2022-11-14T04:19:15.384Z,45.70
2022-11-14T04:20:15.349Z,51.20
2022-11-14T04:21:15.333Z,18.20
2022-11-14T04:22:15.323Z,25.10
2022-11-14T04:23:15.303Z,14.30
2022-11-14T04:24:15.321Z,14.90
2022-11-14T04:25:15.275Z,13.20
2022-11-14T04:26:15.273Z,11.10
2022-11-14T04:27:15.243Z,12.20
2022-11-14T04:28:15.253Z,11.70
2022-11-14T04:29:15.242Z,10.80
2022-11-14T04:30:15.225Z,9.50
2022-11-14T04:31:15.195Z,10.00
2022-11-14T04:32:15.194Z,10.80
2022-11-14T04:33:15.174Z,10.10
2022-11-14T04:34:15.185Z,11.00
2022-11-14T04:35:15.133Z,12.00
2022-11-14T04:36:15.157Z,8.00
2022-11-14T04:37:15.114Z,9.50
2022-11-14T04:38:15.103Z,10.00
2022-11-14T04:39:15.105Z,7.80
2022-11-14T04:40:15.074Z,9.50
2022-11-14T04:41:15.063Z,11.20
2022-11-14T04:42:15.056Z,8.70
2022-11-14T04:43:15.034Z,7.70
2022-11-14T04:44:15.043Z,9.40
2022-11-14T04:45:15.102Z,8.90
2022-11-14T04:46:15.002Z,10.80
2022-11-14T04:47:14.982Z,7.80
2022-11-14T04:48:14.975Z,8.30
2022-11-14T04:49:14.973Z,32.80
2022-11-14T04:50:14.945Z,8.30
2022-11-14T04:51:14.925Z,12.00
2022-11-14T04:52:14.915Z,11.70
2022-11-14T04:53:14.898Z,13.40
2022-11-14T04:54:14.904Z,8.60
2022-11-14T04:55:14.880Z,12.30
2022-11-14T04:56:14.864Z,11.80
2022-11-14T04:57:14.844Z,12.00
2022-11-14T04:58:14.837Z,9.00
2022-11-14T04:59:20.504Z,10.20
2022-11-14T05:00:15.806Z,8.80
2022-11-14T05:01:14.859Z,7.40
2022-11-14T05:02:14.782Z,8.30
2022-11-14T05:03:14.764Z,7.70
2022-11-14T05:04:14.774Z,7.50
2022-11-14T05:05:14.747Z,14.80
2022-11-14T05:06:14.725Z,14.90
2022-11-14T05:07:14.792Z,15.00
2022-11-14T05:08:14.707Z,10.20
2022-11-14T05:09:14.694Z,10.50
2022-11-14T05:10:14.665Z,11.10
2022-11-14T05:11:14.656Z,7.50
2022-11-14T05:12:14.647Z,8.10
2022-11-14T05:13:14.645Z,9.30
2022-11-14T05:14:14.634Z,8.80
2022-11-14T05:15:14.606Z,8.10
2022-11-14T05:16:14.595Z,9.00
2022-11-14T05:17:14.574Z,7.30
2022-11-14T05:18:14.578Z,9.10
2022-11-14T05:19:14.585Z,8.80
2022-11-14T05:20:14.548Z,8.40
2022-11-14T05:21:14.525Z,8.70
2022-11-14T05:22:14.513Z,9.30
2022-11-14T05:23:14.495Z,7.90
2022-11-14T05:24:14.503Z,7.80
2022-11-14T05:25:14.465Z,8.50
2022-11-14T05:26:14.456Z,10.00
2022-11-14T05:27:14.435Z,10.20
2022-11-14T05:28:14.434Z,8.60
2022-11-14T05:29:14.426Z,9.30
2022-11-14T05:30:14.409Z,8.40
2022-11-14T05:31:14.388Z,9.00
2022-11-14T05:32:16.362Z,10.30
2022-11-14T05:33:14.377Z,9.40
2022-11-14T05:34:14.384Z,10.80
2022-11-14T05:35:14.335Z,33.00
2022-11-14T05:36:14.325Z,41.10
2022-11-14T05:37:14.308Z,12.70
2022-11-14T05:38:14.296Z,10.50
2022-11-14T05:39:14.306Z,9.40
2022-11-14T05:40:14.275Z,10.50
2022-11-14T05:41:14.248Z,11.10
2022-11-14T05:42:14.247Z,10.70
2022-11-14T05:43:14.236Z,10.50
2022-11-14T05:44:14.236Z,10.80
2022-11-14T05:45:14.223Z,11.60
2022-11-14T05:46:14.187Z,11.50
2022-11-14T05:47:14.177Z,8.20
2022-11-14T05:48:14.168Z,9.70
2022-11-14T05:49:17.887Z,9.30
2022-11-14T05:50:15.158Z,12.50
2022-11-14T05:51:14.118Z,9.00
2022-11-14T05:52:14.113Z,8.80
2022-11-14T05:53:14.096Z,9.70
2022-11-14T05:54:14.086Z,11.20
2022-11-14T05:55:14.087Z,11.00
2022-11-14T05:56:14.048Z,10.20
2022-11-14T05:57:14.028Z,8.30
2022-11-14T05:58:14.035Z,10.50
2022-11-14T05:59:14.016Z,10.80
2022-11-14T06:00:14.098Z,9.70
2022-11-14T06:01:13.981Z,13.40
2022-11-14T06:02:14.031Z,10.10
2022-11-14T06:03:13.957Z,9.40
2022-11-14T06:04:13.948Z,9.60
2022-11-14T06:05:13.938Z,9.20
2022-11-14T06:06:13.918Z,9.80
2022-11-14T06:07:18.819Z,11.60
2022-11-14T06:08:14.901Z,8.90
2022-11-14T06:09:13.885Z,11.50
2022-11-14T06:10:13.889Z,9.80
2022-11-14T06:11:13.850Z,9.80
2022-11-14T06:12:13.837Z,10.90
2022-11-14T06:13:13.840Z,10.10
2022-11-14T06:14:13.819Z,10.20
2022-11-14T06:15:13.830Z,10.80
2022-11-14T06:16:13.786Z,10.80
2022-11-14T06:17:13.766Z,10.70
2022-11-14T06:18:13.760Z,9.50
2022-11-14T06:19:13.760Z,11.60
2022-11-14T06:20:13.751Z,10.50
2022-11-14T06:21:13.728Z,10.20
2022-11-14T06:22:13.708Z,9.20
2022-11-14T06:23:13.703Z,9.80
2022-11-14T06:24:13.709Z,11.10
2022-11-14T06:25:13.659Z,8.80
2022-11-14T06:26:13.649Z,9.10
2022-11-14T06:27:13.630Z,11.80
2022-11-14T06:28:13.660Z,11.00
2022-11-14T06:29:13.629Z,64.20
2022-11-14T06:30:13.598Z,45.30
2022-11-14T06:31:13.578Z,37.00
2022-11-14T06:32:13.569Z,14.00
2022-11-14T06:33:13.552Z,15.00
2022-11-14T06:34:13.561Z,12.30
2022-11-14T06:35:13.519Z,10.20
2022-11-14T06:36:13.519Z,11.40
2022-11-14T06:37:13.500Z,12.80
2022-11-14T06:38:13.491Z,10.60
2022-11-14T06:39:13.488Z,10.30
2022-11-14T06:40:13.458Z,13.00
2022-11-14T06:41:13.450Z,12.90
2022-11-14T06:42:13.439Z,10.70
2022-11-14T06:43:13.429Z,12.20
2022-11-14T06:44:13.430Z,10.70
2022-11-14T06:45:13.391Z,9.70
2022-11-14T06:46:13.389Z,9.40
2022-11-14T06:47:13.361Z,10.10
2022-11-14T06:48:13.356Z,12.30
2022-11-14T06:49:13.359Z,10.80
2022-11-14T06:50:13.320Z,10.50
2022-11-14T06:51:13.310Z,12.50
2022-11-14T06:52:13.369Z,11.90
2022-11-14T06:53:13.295Z,11.40
2022-11-14T06:54:13.290Z,9.80
2022-11-14T06:55:13.260Z,14.20
2022-11-14T06:56:13.239Z,10.80
2022-11-14T06:57:13.228Z,12.20
2022-11-14T06:58:13.210Z,10.80
2022-11-14T06:59:13.220Z,9.90
2022-11-14T07:00:13.191Z,9.30
2022-11-14T07:01:13.170Z,13.40
2022-11-14T07:02:16.437Z,12.00
2022-11-14T07:03:14.211Z,13.30
2022-11-14T07:04:13.150Z,11.60
2022-11-14T07:05:13.119Z,10.80
2022-11-14T07:06:13.099Z,14.00
2022-11-14T07:07:13.180Z,15.90
2022-11-14T07:08:16.067Z,11.70
2022-11-14T07:09:14.082Z,11.70
2022-11-14T07:10:13.050Z,14.00
2022-11-14T07:11:13.050Z,11.30
2022-11-14T07:12:13.021Z,13.10
2022-11-14T07:13:13.047Z,13.60
2022-11-14T07:14:13.021Z,13.30
2022-11-14T07:15:12.990Z,11.70
2022-11-14T07:16:12.970Z,11.90
2022-11-14T07:17:12.960Z,13.50
2022-11-14T07:18:12.941Z,12.50
2022-11-14T07:19:12.951Z,10.30
2022-11-14T07:20:12.923Z,10.30
2022-11-14T07:21:12.909Z,13.80
2022-11-14T07:22:12.891Z,16.30
2022-11-14T07:23:12.879Z,13.50
2022-11-14T07:24:12.871Z,14.30
2022-11-14T07:25:12.851Z,12.90
2022-11-14T07:26:12.831Z,14.60
2022-11-14T07:27:12.821Z,13.10
2022-11-14T07:28:12.802Z,13.80
2022-11-14T07:29:12.821Z,16.90
2022-11-14T07:30:12.783Z,12.90
2022-11-14T07:31:12.771Z,12.50
2022-11-14T07:32:12.751Z,13.80
2022-11-14T07:33:12.763Z,13.70
2022-11-14T07:34:12.739Z,12.50
2022-11-14T07:35:12.726Z,13.80
2022-11-14T07:36:12.701Z,12.90
2022-11-14T07:37:12.691Z,16.00
2022-11-14T07:38:12.672Z,14.40
2022-11-14T07:39:12.692Z,12.80
2022-11-14T07:40:12.644Z,12.50
2022-11-14T07:41:12.641Z,12.80
2022-11-14T07:42:12.623Z,15.50
2022-11-14T07:43:12.610Z,11.40
2022-11-14T07:44:12.612Z,14.70
2022-11-14T07:45:12.592Z,15.90
2022-11-14T07:46:12.563Z,13.30
2022-11-14T07:47:12.551Z,14.40
2022-11-14T07:48:12.535Z,15.60
2022-11-14T07:49:12.541Z,15.40
2022-11-14T07:50:15.194Z,14.70
2022-11-14T07:51:13.502Z,15.30
2022-11-14T07:52:12.482Z,15.50
2022-11-14T07:53:12.472Z,17.00
2022-11-14T07:54:12.472Z,17.20
2022-11-14T07:55:12.453Z,18.30
2022-11-14T07:56:12.433Z,20.20
2022-11-14T07:57:12.423Z,24.20
2022-11-14T07:58:12.402Z,17.90
2022-11-14T07:59:12.415Z,20.60
2022-11-14T08:00:12.372Z,22.00
2022-11-14T08:01:12.445Z,22.10
2022-11-14T08:02:12.352Z,24.10
2022-11-14T08:03:12.345Z,23.30
2022-11-14T08:04:12.344Z,24.10
2022-11-14T08:05:12.324Z,21.60
2022-11-14T08:06:12.305Z,20.90
2022-11-14T08:07:12.320Z,26.40
2022-11-14T08:08:12.274Z,23.20
2022-11-14T08:09:12.282Z,22.60
2022-11-14T08:10:12.256Z,22.90
2022-11-14T08:11:12.240Z,22.00
2022-11-14T08:12:12.214Z,22.00
2022-11-14T08:14:13.206Z,25.60
2022-11-14T08:15:12.185Z,25.60
2022-11-14T08:16:13.651Z,24.80
2022-11-14T08:17:12.153Z,21.60
2022-11-14T08:18:12.133Z,23.00
2022-11-14T08:19:12.156Z,24.70
2022-11-14T08:20:12.114Z,25.90
2022-11-14T08:21:12.103Z,24.40
2022-11-14T08:22:12.083Z,22.60
2022-11-14T08:23:12.086Z,25.00
2022-11-14T08:24:12.075Z,23.40
2022-11-14T08:25:12.046Z,22.80
2022-11-14T08:26:12.033Z,22.90
2022-11-14T08:27:12.024Z,24.40
2022-11-14T08:28:12.004Z,23.70
2022-11-14T08:29:12.015Z,25.20
2022-11-14T08:30:11.980Z,24.40
2022-11-14T08:31:11.967Z,27.10
2022-11-14T08:32:11.954Z,24.90
2022-11-14T08:33:11.945Z,22.50
2022-11-14T08:34:11.940Z,22.90
2022-11-14T08:35:11.918Z,21.20
2022-11-14T08:36:11.900Z,23.90
2022-11-14T08:37:11.887Z,28.70
2022-11-14T08:38:11.866Z,23.50
2022-11-14T08:39:11.876Z,23.40
2022-11-14T08:40:11.847Z,25.40
2022-11-14T08:41:11.839Z,24.90
2022-11-14T08:42:11.818Z,24.50
2022-11-14T08:43:11.828Z,27.70
2022-11-14T08:44:11.806Z,22.30
2022-11-14T08:45:11.776Z,27.20
2022-11-14T08:46:11.764Z,24.40
2022-11-14T08:47:11.756Z,23.70
2022-11-14T08:49:02.070Z,24.80
2022-11-14T08:50:02.029Z,25.70
2022-11-14T08:51:02.030Z,28.40
2022-11-14T08:52:02.006Z,23.90
2022-11-14T08:53:02.013Z,26.80
2022-11-14T08:54:01.999Z,24.40
2022-11-14T08:55:01.978Z,25.10
2022-11-14T08:56:01.952Z,24.80
2022-11-14T08:57:01.941Z,27.70
2022-11-14T08:58:01.920Z,26.20
2022-11-14T08:59:01.930Z,23.20
2022-11-14T09:00:01.913Z,24.60
2022-11-14T09:01:01.902Z,27.00
2022-11-14T09:02:01.883Z,27.60
2022-11-14T09:03:01.916Z,24.10
2022-11-14T09:04:02.065Z,23.20
2022-11-14T09:05:01.850Z,33.00
2022-11-14T09:06:01.839Z,24.80
2022-11-14T09:07:01.846Z,27.70
2022-11-14T09:08:01.791Z,26.20
2022-11-14T09:09:01.809Z,28.70
2022-11-14T09:10:01.771Z,27.10
2022-11-14T09:11:05.365Z,30.00
2022-11-14T09:12:01.767Z,32.40
2022-11-14T09:13:01.758Z,30.60
2022-11-14T09:14:01.763Z,31.70
2022-11-14T09:15:01.730Z,26.70
2022-11-14T09:16:01.693Z,28.70
2022-11-14T09:17:05.748Z,26.10
2022-11-14T09:18:01.687Z,30.20
2022-11-14T09:19:01.673Z,26.70
2022-11-14T09:20:01.643Z,28.20
2022-11-14T09:21:01.652Z,28.00
2022-11-14T09:22:01.635Z,29.60
2022-11-14T09:23:01.601Z,27.40
2022-11-14T09:24:02.077Z,31.30
2022-11-14T09:25:01.573Z,28.60
2022-11-14T09:26:01.577Z,32.10
2022-11-14T09:27:01.583Z,33.00
2022-11-14T09:28:01.546Z,31.00
2022-11-14T09:29:01.545Z,34.60
2022-11-14T09:30:01.533Z,32.20
2022-11-14T09:31:01.496Z,32.40
2022-11-14T09:32:01.485Z,34.20
2022-11-14T09:33:02.827Z,32.00
2022-11-14T09:34:01.473Z,30.70
2022-11-14T09:35:01.445Z,33.90
2022-11-14T09:36:01.427Z,35.00
2022-11-14T09:37:01.414Z,32.40
2022-11-14T09:38:01.395Z,34.20
2022-11-14T09:39:01.406Z,34.90
2022-11-14T09:40:01.388Z,33.70
2022-11-14T09:41:01.365Z,35.70
2022-11-14T09:42:01.382Z,35.70
2022-11-14T09:43:01.357Z,35.50
2022-11-14T09:44:01.346Z,35.60
2022-11-14T09:45:01.338Z,38.80
2022-11-14T09:46:01.296Z,39.00
2022-11-14T09:47:01.297Z,38.00
2022-11-14T09:48:01.280Z,37.70
2022-11-14T09:49:01.269Z,37.60
2022-11-14T09:50:01.277Z,38.40
2022-11-14T09:51:01.227Z,41.00
2022-11-14T09:52:01.215Z,36.90
2022-11-14T09:53:01.219Z,37.50
2022-11-14T09:54:01.203Z,38.30
2022-11-14T09:55:01.176Z,39.50
2022-11-14T09:56:01.168Z,38.20
2022-11-14T09:57:01.156Z,38.50
2022-11-14T09:58:01.158Z,39.30
2022-11-14T09:59:01.117Z,36.80
2022-11-14T10:00:01.108Z,38.50
2022-11-14T10:01:03.839Z,36.70
2022-11-14T10:02:02.134Z,41.60
2022-11-14T10:03:01.100Z,35.50
2022-11-14T10:04:01.057Z,37.70
2022-11-14T10:05:01.076Z,33.90
2022-11-14T10:06:01.039Z,37.60
2022-11-14T10:07:01.091Z,37.70
2022-11-14T10:08:01.037Z,37.20
2022-11-14T10:09:01.002Z,38.90
2022-11-14T10:10:00.971Z,37.50
2022-11-14T10:11:00.979Z,34.90
2022-11-14T10:12:00.951Z,38.40
2022-11-14T10:13:01.015Z,35.40
2022-11-14T10:14:00.946Z,35.60
2022-11-14T10:15:00.939Z,32.90
2022-11-14T10:16:00.888Z,34.00
2022-11-14T10:17:00.918Z,35.50
2022-11-14T10:18:00.910Z,38.10
2022-11-14T10:19:00.878Z,34.20
2022-11-14T10:20:00.855Z,33.90
2022-11-14T10:21:00.841Z,35.40
2022-11-14T10:22:00.819Z,34.30
2022-11-14T10:23:01.715Z,33.40
2022-11-14T10:24:00.820Z,34.10
2022-11-14T10:25:00.797Z,37.90
2022-11-14T10:26:00.770Z,33.80
2022-11-14T10:27:00.751Z,33.30
2022-11-14T10:28:04.992Z,29.70
2022-11-14T10:29:00.728Z,33.80
2022-11-14T10:30:00.748Z,30.20
2022-11-14T10:31:00.689Z,28.50
2022-11-14T10:32:00.709Z,32.30
2022-11-14T10:33:00.689Z,32.10
2022-11-14T10:34:00.682Z,29.30
2022-11-14T10:35:00.640Z,29.40
2022-11-14T10:36:00.641Z,28.70
2022-11-14T10:37:00.623Z,27.60
2022-11-14T10:38:00.649Z,27.70
2022-11-14T10:39:00.591Z,27.90
2022-11-14T10:40:00.581Z,27.10
2022-11-14T10:41:00.574Z,30.20
2022-11-14T10:42:06.012Z,27.90
2022-11-14T10:43:01.574Z,25.40
2022-11-14T10:44:00.541Z,24.30
2022-11-14T10:45:00.513Z,24.70
2022-11-14T10:46:00.503Z,28.30
2022-11-14T10:47:00.486Z,27.10
2022-11-14T10:48:00.491Z,26.70
2022-11-14T10:49:00.659Z,26.40
2022-11-14T10:50:00.452Z,26.10
2022-11-14T10:51:00.433Z,28.00
2022-11-14T10:52:00.445Z,28.10
2022-11-14T10:53:00.442Z,26.20
2022-11-14T10:54:00.408Z,26.30
2022-11-14T10:55:00.398Z,25.00
2022-11-14T10:56:05.049Z,27.70
2022-11-14T10:57:01.364Z,26.60
2022-11-14T10:58:00.382Z,26.00
2022-11-14T10:59:00.327Z,23.80
2022-11-14T11:00:00.326Z,25.30
2022-11-14T11:01:00.372Z,29.90
2022-11-14T11:02:00.291Z,28.00
2022-11-14T11:03:00.307Z,29.70
2022-11-14T11:04:00.294Z,25.20
2022-11-14T11:05:00.245Z,26.00
2022-11-14T11:06:00.256Z,26.50
2022-11-14T11:07:00.257Z,28.40
2022-11-14T11:08:15.019Z,28.20
2022-11-14T11:09:01.254Z,31.00
2022-11-14T11:10:00.204Z,28.30
2022-11-14T11:11:00.187Z,31.40
2022-11-14T11:12:00.226Z,28.40
2022-11-14T11:13:00.207Z,27.80
2022-11-14T11:14:00.124Z,27.30
2022-11-14T11:15:00.136Z,24.60
2022-11-14T11:16:00.108Z,25.80
2022-11-14T11:17:00.116Z,24.10
2022-11-14T11:18:00.103Z,29.20
2022-11-14T11:19:00.068Z,27.80
2022-11-14T11:20:03.876Z,25.60
2022-11-14T11:21:01.079Z,29.90
2022-11-14T11:22:00.037Z,28.50
2022-11-14T11:23:03.189Z,26.40
2022-11-14T11:24:00.019Z,25.00
2022-11-14T11:24:59.986Z,26.80
2022-11-14T11:26:00.002Z,26.10
2022-11-14T11:26:59.948Z,24.60
2022-11-14T11:27:59.947Z,25.60
2022-11-14T11:28:59.960Z,27.00
2022-11-14T11:29:59.917Z,28.80
2022-11-14T11:30:59.897Z,28.00
2022-11-14T11:31:59.886Z,25.90
2022-11-14T11:32:59.867Z,22.20
2022-11-14T11:33:59.888Z,27.50
2022-11-14T11:34:59.847Z,26.40
2022-11-14T11:35:59.844Z,25.40
2022-11-14T11:36:59.819Z,27.00
2022-11-14T11:37:59.807Z,28.80
2022-11-14T11:38:59.817Z,26.30
2022-11-14T11:39:59.801Z,29.40
2022-11-14T11:40:59.760Z,24.50
2022-11-14T11:42:09.318Z,26.50
2022-11-14T11:44:00.894Z,26.20
2022-11-14T11:44:59.722Z,28.00
2022-11-14T11:45:59.707Z,27.00
2022-11-14T11:46:59.688Z,26.80
2022-11-14T11:47:59.701Z,30.30
2022-11-14T11:48:59.670Z,26.90
2022-11-14T11:49:59.659Z,26.30
2022-11-14T11:50:59.630Z,26.10
2022-11-14T11:51:59.628Z,27.70
2022-11-14T11:52:59.626Z,27.20
2022-11-14T11:53:59.599Z,29.20
2022-11-14T11:54:59.600Z,29.40
2022-11-14T11:55:59.571Z,27.70
2022-11-14T11:56:59.580Z,29.80
2022-11-14T11:57:59.589Z,30.20
2022-11-14T11:58:59.538Z,33.00
2022-11-14T11:59:59.520Z,28.80
2022-11-14T12:00:59.519Z,27.90
2022-11-14T12:01:59.519Z,28.00
2022-11-14T12:02:59.606Z,27.70
2022-11-14T12:03:59.502Z,32.60
2022-11-14T12:04:59.450Z,29.50
2022-11-14T12:05:59.441Z,29.90
2022-11-14T12:06:59.472Z,29.00
2022-11-14T12:07:59.440Z,27.30
2022-11-14T12:08:59.422Z,29.00
2022-11-14T12:10:14.660Z,28.40
2022-11-14T12:11:00.371Z,29.10
2022-11-14T12:11:59.361Z,28.10
2022-11-14T12:12:59.382Z,26.90
2022-11-14T12:13:59.345Z,30.40
2022-11-14T12:14:59.324Z,30.70
2022-11-14T12:15:59.328Z,29.30
2022-11-14T12:16:59.294Z,28.90
2022-11-14T12:17:59.293Z,30.40
2022-11-14T12:18:59.286Z,28.20
2022-11-14T12:19:59.271Z,31.40
2022-11-14T12:20:59.243Z,28.80
2022-11-14T12:21:59.243Z,29.80
2022-11-14T12:22:59.213Z,30.20
2022-11-14T12:23:59.239Z,31.60
2022-11-14T12:24:59.192Z,30.00
2022-11-14T12:25:59.183Z,29.70
2022-11-14T12:26:59.166Z,31.60
2022-11-14T12:27:59.205Z,30.90
2022-11-14T12:28:59.184Z,29.90
2022-11-14T12:29:59.127Z,30.90
2022-11-14T12:30:59.115Z,33.70
2022-11-14T12:31:59.123Z,30.30
2022-11-14T12:32:59.084Z,29.50
2022-11-14T12:33:59.108Z,29.40
2022-11-14T12:34:59.091Z,30.70
2022-11-14T12:35:59.067Z,26.10
2022-11-14T12:36:59.047Z,26.90
2022-11-14T12:37:59.049Z,28.20
2022-11-14T12:38:58.995Z,30.50
2022-11-14T12:39:59.017Z,30.80
2022-11-14T12:40:58.995Z,28.20
2022-11-14T12:41:58.978Z,29.20
2022-11-14T12:42:58.962Z,29.00
2022-11-14T12:43:58.977Z,30.10
2022-11-14T12:44:58.938Z,29.70
2022-11-14T12:45:58.915Z,31.90
2022-11-14T12:46:58.900Z,28.30
2022-11-14T12:47:58.906Z,30.60
2022-11-14T12:48:58.905Z,30.80
2022-11-14T12:49:58.869Z,32.00
2022-11-14T12:50:58.856Z,30.50
2022-11-14T12:51:58.836Z,33.40
2022-11-14T12:52:58.827Z,29.40
2022-11-14T12:53:58.827Z,31.20
2022-11-14T12:54:58.820Z,29.70
2022-11-14T12:55:58.785Z,30.30
2022-11-14T12:56:58.773Z,30.60